Time;durP1;ratioP1;P1;durP2;ratioP2;P2;SDS_P1;SDS_P2;PMS_P1;PMS_P2;Temp;Humidity;BMP_temperature;BMP_pressure;BME280_temperature;BME280_humidity;BME280_pressure;Samples;Min_cycle;Max_cycle;Signal;HPM_P1;HPM_P2
2023/10/04 00:00:21;;;;;;;8.40;4.97;;;;;;;;;;5074321;28;20041;-79
2023/10/04 00:02:53;;;;;;;9.13;5.38;;;;;;;;;;5055794;28;20053;-78
2023/10/04 00:05:24;;;;;;;11.90;6.07;;;;;;;;;;5073958;28;20490;-79
2023/10/04 00:07:56;;;;;;;10.48;4.95;;;;;;;;;;5073151;28;20057;-78
2023/10/04 00:10:26;;;;;;;9.40;5.18;;;;;;;;;;5056001;28;20044;-78
2023/10/04 00:12:56;;;;;;;10.00;4.80;;;;;;;;;;5073516;28;20059;-80
2023/10/04 00:15:29;;;;;;;8.93;4.75;;;;;;;;;;5073641;28;20115;-79
2023/10/04 00:17:59;;;;;;;9.13;5.05;;;;;;;;;;5056393;28;20059;-79
2023/10/04 00:20:33;;;;;;;13.65;5.30;;;;;;;;;;5054693;28;20415;-81
2023/10/04 00:23:05;;;;;;;7.82;5.28;;;;;;;;;;5056781;28;20056;-79
2023/10/04 00:25:37;;;;;;;10.50;4.97;;;;;;;;;;5054198;28;20498;-79
2023/10/04 00:28:07;;;;;;;12.23;5.05;;;;;;;;;;5073743;28;20044;-78
2023/10/04 00:30:38;;;;;;;10.88;4.90;;;;;;;;;;5073661;28;20063;-80
2023/10/04 00:33:09;;;;;;;9.35;5.10;;;;;;;;;;5056243;28;20057;-79
2023/10/04 00:35:40;;;;;;;11.75;6.32;;;;;;;;;;5055234;28;20407;-77
2023/10/04 00:38:14;;;;;;;11.25;5.97;;;;;;;;;;5072955;28;20426;-78
2023/10/04 00:40:50;;;;;;;13.10;6.80;;;;;;;;;;5073495;28;20041;-78
2023/10/04 00:43:20;;;;;;;10.40;5.88;;;;;;;;;;5054590;28;20048;-79
2023/10/04 00:45:51;;;;;;;10.50;6.22;;;;;;;;;;5039481;28;20052;-79
2023/10/04 00:48:24;;;;;;;10.60;5.90;;;;;;;;;;5055886;28;20044;-78
2023/10/04 00:50:54;;;;;;;10.13;5.53;;;;;;;;;;5054822;28;20064;-78
2023/10/04 00:53:26;;;;;;;10.30;6.07;;;;;;;;;;5073209;28;20045;-80
2023/10/04 00:55:57;;;;;;;12.20;6.15;;;;;;;;;;5072907;28;20049;-79
2023/10/04 00:58:28;;;;;;;9.13;6.15;;;;;;;;;;5054875;28;20049;-78
2023/10/04 01:00:59;;;;;;;12.95;6.30;;;;;;;;;;5073449;28;20045;-78
2023/10/04 01:03:34;;;;;;;13.18;6.47;;;;;;;;;;5054904;28;20072;-78
2023/10/04 01:06:05;;;;;;;12.48;5.63;;;;;;;;;;5072955;28;20360;-79
2023/10/04 01:08:36;;;;;;;11.90;5.85;;;;;;;;;;5073185;28;20421;-81
2023/10/04 01:11:07;;;;;;;12.10;6.40;;;;;;;;;;5055836;28;20364;-77
2023/10/04 01:13:38;;;;;;;12.80;7.03;;;;;;;;;;5038631;28;20048;-77
2023/10/04 01:16:11;;;;;;;11.73;6.90;;;;;;;;;;5073129;28;20067;-79
2023/10/04 01:18:44;;;;;;;11.68;6.72;;;;;;;;;;5053416;28;20055;-78
2023/10/04 01:21:16;;;;;;;11.02;6.93;;;;;;;;;;5056127;28;20049;-78
2023/10/04 01:23:47;;;;;;;9.02;5.00;;;;;;;;;;5073079;28;20044;-79
2023/10/04 01:26:25;;;;;;;11.45;5.88;;;;;;;;;;5072806;28;20064;-78
2023/10/04 01:28:56;;;;;;;10.70;6.60;;;;;;;;;;5054115;28;20048;-80
2023/10/04 01:31:27;;;;;;;15.90;7.00;;;;;;;;;;5072449;28;20062;-77
2023/10/04 01:33:59;;;;;;;13.88;5.65;;;;;;;;;;5072766;28;20052;-77
2023/10/04 01:36:32;;;;;;;12.15;5.60;;;;;;;;;;5061468;28;20041;-79
2023/10/04 01:39:07;;;;;;;11.55;6.03;;;;;;;;;;5052774;28;20041;-77
2023/10/04 01:41:38;;;;;;;10.20;5.78;;;;;;;;;;5064030;28;20056;-77
2023/10/04 01:44:10;;;;;;;10.25;6.15;;;;;;;;;;5072606;28;20051;-77
2023/10/04 01:46:40;;;;;;;10.10;5.63;;;;;;;;;;5072661;28;20040;-77
2023/10/04 01:49:10;;;;;;;9.90;6.82;;;;;;;;;;5072264;28;20036;-77
2023/10/04 01:51:42;;;;;;;14.07;6.32;;;;;;;;;;5072286;28;20043;-78
2023/10/04 01:54:17;;;;;;;9.23;5.72;;;;;;;;;;5071900;28;20052;-77
2023/10/04 01:56:47;;;;;;;12.98;7.10;;;;;;;;;;5072386;28;20479;-78
2023/10/04 01:59:19;;;;;;;11.60;7.13;;;;;;;;;;5037646;28;20048;-78
2023/10/04 02:01:49;;;;;;;10.30;6.55;;;;;;;;;;5072061;28;20085;-78
2023/10/04 02:04:19;;;;;;;13.02;6.45;;;;;;;;;;5071917;28;20044;-77
2023/10/04 02:06:49;;;;;;;11.10;5.38;;;;;;;;;;5071563;28;20048;-78
2023/10/04 02:09:20;;;;;;;11.75;6.13;;;;;;;;;;5071708;28;20387;-78
2023/10/04 02:11:50;;;;;;;10.88;6.20;;;;;;;;;;5053369;28;20054;-79
2023/10/04 02:14:20;;;;;;;11.65;5.65;;;;;;;;;;5072060;28;20045;-78
2023/10/04 02:16:52;;;;;;;13.20;6.68;;;;;;;;;;5071884;28;20051;-78
2023/10/04 02:19:24;;;;;;;13.18;6.70;;;;;;;;;;5054064;28;20052;-78
2023/10/04 02:21:54;;;;;;;15.25;5.65;;;;;;;;;;5072104;28;20411;-79
2023/10/04 02:24:25;;;;;;;11.32;6.63;;;;;;;;;;5071784;28;20049;-79
2023/10/04 02:26:55;;;;;;;11.63;6.25;;;;;;;;;;5071563;28;20052;-78
2023/10/04 02:29:27;;;;;;;11.10;6.47;;;;;;;;;;5068281;28;20037;-77
2023/10/04 02:31:57;;;;;;;13.00;7.80;;;;;;;;;;5071848;28;20056;-76
2023/10/04 02:34:27;;;;;;;13.10;7.25;;;;;;;;;;5071708;28;20051;-78
2023/10/04 02:36:57;;;;;;;9.57;6.80;;;;;;;;;;5071551;28;20487;-80
2023/10/04 02:39:28;;;;;;;12.85;7.18;;;;;;;;;;5053589;28;20057;-78
2023/10/04 02:41:59;;;;;;;10.85;6.95;;;;;;;;;;5070943;28;20495;-80
2023/10/04 02:44:29;;;;;;;14.85;7.10;;;;;;;;;;5052891;28;20045;-78
2023/10/04 02:47:06;;;;;;;10.05;5.43;;;;;;;;;;5053338;28;20432;-78
2023/10/04 02:49:39;;;;;;;8.45;5.43;;;;;;;;;;5052778;28;20052;-79
2023/10/04 02:52:11;;;;;;;11.13;5.35;;;;;;;;;;5053167;28;20060;-79
2023/10/04 02:54:42;;;;;;;13.18;5.47;;;;;;;;;;5053018;28;20064;-79
2023/10/04 02:57:12;;;;;;;7.43;4.28;;;;;;;;;;5052956;28;20055;-79
2023/10/04 02:59:43;;;;;;;12.88;4.90;;;;;;;;;;5037002;28;20059;-79
2023/10/04 03:02:14;;;;;;;8.52;4.40;;;;;;;;;;5052997;28;20052;-78
2023/10/04 03:04:44;;;;;;;10.35;5.53;;;;;;;;;;5053020;28;20521;-77
2023/10/04 03:07:13;;;;;;;8.80;5.47;;;;;;;;;;5071185;28;20045;-80
2023/10/04 03:09:43;;;;;;;10.15;4.93;;;;;;;;;;5053949;28;20055;-77
2023/10/04 03:12:15;;;;;;;10.35;5.95;;;;;;;;;;5071077;28;20052;-77
2023/10/04 03:14:45;;;;;;;8.98;5.07;;;;;;;;;;5071465;28;20052;-77
2023/10/04 03:17:15;;;;;;;13.98;5.13;;;;;;;;;;5052850;28;20064;-77
2023/10/04 03:19:47;;;;;;;9.35;4.85;;;;;;;;;;5052772;28;20057;-79
2023/10/04 03:22:22;;;;;;;13.45;5.10;;;;;;;;;;5071367;28;20067;-78
2023/10/04 03:24:54;;;;;;;10.02;4.75;;;;;;;;;;5052907;28;20391;-78
2023/10/04 03:27:26;;;;;;;9.30;4.63;;;;;;;;;;5071186;28;20049;-79
2023/10/04 03:29:57;;;;;;;7.05;4.25;;;;;;;;;;5052314;28;20053;-78
2023/10/04 03:32:29;;;;;;;7.30;4.50;;;;;;;;;;5052098;28;20064;-78
2023/10/04 03:35:02;;;;;;;7.75;4.45;;;;;;;;;;5052919;28;20063;-77
2023/10/04 03:37:39;;;;;;;6.93;3.30;;;;;;;;;;5052668;28;20048;-78
2023/10/04 03:40:14;;;;;;;8.00;3.47;;;;;;;;;;5052488;28;20053;-79
2023/10/04 03:42:46;;;;;;;7.75;3.80;;;;;;;;;;5054966;28;20521;-78
2023/10/04 03:45:20;;;;;;;8.18;4.53;;;;;;;;;;5056187;28;20415;-77
2023/10/04 03:47:52;;;;;;;7.68;4.00;;;;;;;;;;5056219;28;20051;-78
2023/10/04 03:50:24;;;;;;;8.50;3.40;;;;;;;;;;5055934;28;20049;-78
2023/10/04 03:52:57;;;;;;;6.13;3.38;;;;;;;;;;5074408;28;20432;-77
2023/10/04 03:55:28;;;;;;;6.95;3.35;;;;;;;;;;5056238;28;20060;-77
2023/10/04 03:57:59;;;;;;;6.88;3.30;;;;;;;;;;5056344;28;20048;-78
2023/10/04 04:00:31;;;;;;;5.57;3.13;;;;;;;;;;5055922;28;20055;-78
2023/10/04 04:03:01;;;;;;;8.27;4.82;;;;;;;;;;5086835;28;20051;-79
2023/10/04 04:05:38;;;;;;;7.25;3.33;;;;;;;;;;5094929;28;20517;-78
2023/10/04 04:08:09;;;;;;;10.80;4.00;;;;;;;;;;5076115;28;20051;-78
2023/10/04 04:10:42;;;;;;;6.90;3.67;;;;;;;;;;5076792;28;20048;-79
2023/10/04 04:13:13;;;;;;;6.35;3.00;;;;;;;;;;5095466;28;20047;-78
2023/10/04 04:15:42;;;;;;;5.55;3.00;;;;;;;;;;5076093;28;20055;-78
2023/10/04 04:18:20;;;;;;;7.50;3.80;;;;;;;;;;5076985;28;20498;-78
2023/10/04 04:20:53;;;;;;;6.72;3.30;;;;;;;;;;5076386;28;20052;-79
2023/10/04 04:23:26;;;;;;;8.10;3.50;;;;;;;;;;5076595;28;20051;-77
2023/10/04 04:26:05;;;;;;;8.73;3.45;;;;;;;;;;5076384;28;20513;-77
2023/10/04 04:28:37;;;;;;;7.28;3.90;;;;;;;;;;5076867;28;20044;-78
2023/10/04 04:31:20;;;;;;;7.45;3.35;;;;;;;;;;5075636;28;20424;-77
2023/10/04 04:33:50;;;;;;;7.18;3.90;;;;;;;;;;5076152;28;20048;-76
2023/10/04 04:36:28;;;;;;;9.07;3.03;;;;;;;;;;5076149;28;20044;-77
2023/10/04 04:39:09;;;;;;;10.52;3.80;;;;;;;;;;5076080;28;20063;-77
2023/10/04 04:41:40;;;;;;;7.10;3.90;;;;;;;;;;5076261;28;20067;-79
2023/10/04 04:44:10;;;;;;;7.55;3.72;;;;;;;;;;5094953;28;20044;-78
2023/10/04 04:46:43;;;;;;;;;;;;;;;;;;5071198;28;20075;-77
2023/10/04 04:49:13;;;;;;;8.25;3.20;;;;;;;;;;5055251;28;20386;-77
2023/10/04 04:51:44;;;;;;;7.90;4.00;;;;;;;;;;5074722;28;20052;-77
2023/10/04 04:54:18;;;;;;;;;;;;;;;;;;5056677;28;20047;-78
2023/10/04 04:56:48;;;;;;;8.27;3.47;;;;;;;;;;5056178;28;20375;-78
2023/10/04 04:59:22;;;;;;;6.50;3.20;;;;;;;;;;5056139;28;20482;-77
2023/10/04 05:01:55;;;;;;;8.50;3.45;;;;;;;;;;5055827;28;20517;-78
2023/10/04 05:04:25;;;;;;;7.03;3.92;;;;;;;;;;5074491;28;20060;-78
2023/10/04 05:06:55;;;;;;;7.47;4.13;;;;;;;;;;5055783;28;20060;-78
2023/10/04 05:09:25;;;;;;;7.35;3.83;;;;;;;;;;5073884;28;20048;-78
2023/10/04 05:11:55;;;;;;;6.80;3.53;;;;;;;;;;5073587;28;20475;-78
2023/10/04 05:14:26;;;;;;;7.35;3.45;;;;;;;;;;5074312;28;20410;-78
2023/10/04 05:16:56;;;;;;;7.50;4.10;;;;;;;;;;5056621;28;20044;-79
2023/10/04 05:19:26;;;;;;;7.00;3.95;;;;;;;;;;5074031;28;20052;-78
2023/10/04 05:21:57;;;;;;;9.52;4.47;;;;;;;;;;5073870;28;20041;-77
2023/10/04 05:24:27;;;;;;;6.93;4.03;;;;;;;;;;5073344;28;20047;-78
2023/10/04 05:26:58;;;;;;;8.52;3.65;;;;;;;;;;5055468;28;20041;-77
2023/10/04 05:29:29;;;;;;;10.50;4.72;;;;;;;;;;5073747;28;20040;-79
2023/10/04 05:31:59;;;;;;;11.45;5.50;;;;;;;;;;5054850;28;20059;-77
2023/10/04 05:34:29;;;;;;;7.55;4.10;;;;;;;;;;5073560;28;20081;-78
2023/10/04 05:36:59;;;;;;;7.22;4.07;;;;;;;;;;5072950;28;20052;-76
2023/10/04 05:39:32;;;;;;;8.70;4.10;;;;;;;;;;5073330;28;20471;-76
2023/10/04 05:42:05;;;;;;;10.70;5.85;;;;;;;;;;5073831;28;20052;-77
2023/10/04 05:44:35;;;;;;;10.57;5.20;;;;;;;;;;5073526;28;20053;-77
2023/10/04 05:47:05;;;;;;;11.73;4.45;;;;;;;;;;5073342;28;20052;-78
2023/10/04 05:49:35;;;;;;;11.45;5.22;;;;;;;;;;5073048;28;20048;-78
2023/10/04 05:52:05;;;;;;;10.52;4.75;;;;;;;;;;5072959;28;20044;-76
2023/10/04 05:54:35;;;;;;;8.13;4.90;;;;;;;;;;5055657;28;20045;-77
2023/10/04 05:57:05;;;;;;;10.07;4.85;;;;;;;;;;5055437;28;20041;-77
2023/10/04 05:59:35;;;;;;;8.00;4.22;;;;;;;;;;5073213;28;20036;-77
2023/10/04 06:02:07;;;;;;;10.30;5.53;;;;;;;;;;5072845;28;20478;-77
2023/10/04 06:04:39;;;;;;;10.45;5.22;;;;;;;;;;5072325;28;20418;-77
2023/10/04 06:07:09;;;;;;;12.25;5.80;;;;;;;;;;5073275;28;20048;-77
2023/10/04 06:09:42;;;;;;;11.80;5.53;;;;;;;;;;5072994;28;20044;-77
2023/10/04 06:12:12;;;;;;;11.38;6.05;;;;;;;;;;5054382;28;20055;-77
2023/10/04 06:14:43;;;;;;;10.45;5.78;;;;;;;;;;5072759;28;20047;-77
2023/10/04 06:17:12;;;;;;;10.50;5.90;;;;;;;;;;5072922;28;20051;-77
2023/10/04 06:19:43;;;;;;;12.60;5.75;;;;;;;;;;5072513;28;20051;-77
2023/10/04 06:22:13;;;;;;;9.55;5.85;;;;;;;;;;5072737;28;20045;-77
2023/10/04 06:24:43;;;;;;;8.60;5.18;;;;;;;;;;5072734;28;20040;-78
2023/10/04 06:27:13;;;;;;;13.07;5.93;;;;;;;;;;5072415;28;20052;-79
2023/10/04 06:29:44;;;;;;;12.18;6.13;;;;;;;;;;5054438;28;20052;-79
2023/10/04 06:32:14;;;;;;;11.00;7.18;;;;;;;;;;5072794;28;20062;-79
2023/10/04 06:34:47;;;;;;;11.90;5.93;;;;;;;;;;5072307;28;20468;-78
2023/10/04 06:37:17;;;;;;;11.68;6.20;;;;;;;;;;5072683;28;20048;-79
2023/10/04 06:39:47;;;;;;;10.63;5.38;;;;;;;;;;5072583;28;20044;-81
2023/10/04 06:42:17;;;;;;;10.00;5.35;;;;;;;;;;5072713;28;20044;-81
2023/10/04 06:44:49;;;;;;;11.65;5.50;;;;;;;;;;5072348;28;20056;-81
